Time;durP1;ratioP1;P1;durP2;ratioP2;P2;SDS_P1;SDS_P2;PMS_P1;PMS_P2;Temp;Humidity;BMP_temperature;BMP_pressure;BME280_temperature;BME280_humidity;BME280_pressure;Samples;Min_cycle;Max_cycle;Signal;HPM_P1;HPM_P2
2021/11/23 00:01:17;;;;;;;34.37;17.40;;;11.70;95.10;;;;;;5044334;28;20211;-71
2021/11/23 00:03:46;;;;;;;26.97;16.23;;;11.70;95.10;;;;;;5046473;28;20241;-71
2021/11/23 00:06:14;;;;;;;24.27;15.00;;;11.70;95.10;;;;;;5054963;28;20221;-71
2021/11/23 00:08:41;;;;;;;24.30;14.43;;;11.70;95.10;;;;;;5051884;28;20243;-70
2021/11/23 00:11:08;;;;;;;26.70;14.53;;;11.70;95.10;;;;;;5045737;28;20226;-70
2021/11/23 00:13:36;;;;;;;19.23;13.10;;;11.70;95.00;;;;;;5055063;28;20234;-70
2021/11/23 00:16:03;;;;;;;21.83;13.67;;;11.70;95.10;;;;;;5054068;28;20280;-70
2021/11/23 00:18:30;;;;;;;26.87;16.07;;;11.70;95.10;;;;;;5045920;28;20203;-70
2021/11/23 00:20:57;;;;;;;26.60;16.67;;;11.70;95.10;;;;;;5038408;28;20218;-70
2021/11/23 00:23:24;;;;;;;25.37;15.67;;;11.70;95.20;;;;;;5049085;28;20230;-70
2021/11/23 00:25:51;;;;;;;25.27;15.63;;;11.70;95.20;;;;;;5051752;28;20219;-70
2021/11/23 00:28:18;;;;;;;30.87;15.93;;;11.70;95.30;;;;;;5051034;28;20211;-70
2021/11/23 00:30:46;;;;;;;30.30;17.23;;;11.70;95.30;;;;;;5037805;28;20214;-70
2021/11/23 00:33:14;;;;;;;32.07;17.13;;;11.70;95.30;;;;;;5040406;28;20267;-70
2021/11/23 00:35:41;;;;;;;25.00;16.73;;;11.70;95.40;;;;;;5040788;28;20225;-70
2021/11/23 00:38:13;;;;;;;30.63;18.70;;;11.60;95.40;;;;;;5041614;28;20226;-70
2021/11/23 00:40:41;;;;;;;31.53;19.33;;;11.70;95.50;;;;;;5044075;28;20211;-70
2021/11/23 00:43:08;;;;;;;24.87;18.00;;;11.60;95.80;;;;;;5047228;28;20207;-70
2021/11/23 00:45:36;;;;;;;30.67;18.80;;;11.70;95.50;;;;;;5045892;28;20222;-70
2021/11/23 00:48:04;;;;;;;36.13;18.43;;;11.70;95.60;;;;;;5043023;28;20604;-70
2021/11/23 00:50:33;;;;;;;27.10;18.07;;;11.70;95.60;;;;;;5044233;28;20195;-71
2021/11/23 00:53:01;;;;;;;29.33;18.80;;;11.60;95.60;;;;;;5044250;28;20222;-70
2021/11/23 00:55:29;;;;;;;27.93;19.43;;;11.60;95.60;;;;;;5043909;28;20217;-70
2021/11/23 00:57:56;;;;;;;37.67;19.37;;;11.60;95.60;;;;;;5044217;28;20221;-70
2021/11/23 01:00:24;;;;;;;34.37;19.40;;;11.70;95.60;;;;;;5042279;28;20449;-70
2021/11/23 01:02:51;;;;;;;31.40;18.27;;;11.60;95.60;;;;;;5041635;28;20273;-70
2021/11/23 01:05:18;;;;;;;32.07;19.10;;;11.60;95.50;;;;;;5039415;28;20215;-70
2021/11/23 01:07:45;;;;;;;36.63;21.33;;;11.60;95.50;;;;;;5040058;28;20242;-70
2021/11/23 01:10:12;;;;;;;31.10;18.83;;;11.60;95.80;;;;;;5042253;28;20214;-70
2021/11/23 01:12:40;;;;;;;29.97;19.00;;;11.60;95.50;;;;;;5050107;28;20638;-70
2021/11/23 01:15:08;;;;;;;36.67;20.17;;;11.60;95.50;;;;;;5051476;28;20238;-70
2021/11/23 01:17:35;;;;;;;37.97;20.17;;;11.60;95.40;;;;;;5051604;28;20215;-70
2021/11/23 01:20:08;;;;;;;37.33;19.20;;;11.60;95.40;;;;;;5052376;28;20264;-70
2021/11/23 01:22:36;;;;;;;31.60;18.77;;;11.60;95.40;;;;;;5032981;28;20563;-70
2021/11/23 01:25:04;;;;;;;33.73;19.23;;;11.50;95.30;;;;;;5035888;28;20215;-70
2021/11/23 01:27:31;;;;;;;33.67;20.43;;;11.50;95.30;;;;;;5034903;28;20484;-70
2021/11/23 01:29:58;;;;;;;35.17;19.83;;;11.40;95.30;;;;;;5034941;28;20226;-70
2021/11/23 01:32:26;;;;;;;27.07;19.57;;;11.40;95.30;;;;;;5035053;28;20272;-70
2021/11/23 01:34:53;;;;;;;33.80;20.43;;;11.40;95.30;;;;;;5035546;28;20598;-70
2021/11/23 01:37:20;;;;;;;31.77;19.43;;;11.30;95.40;;;;;;5038744;28;20215;-70
2021/11/23 01:39:47;;;;;;;34.10;20.13;;;11.30;95.40;;;;;;5038064;28;20214;-70
2021/11/23 01:42:14;;;;;;;33.87;18.63;;;11.40;95.40;;;;;;5048971;28;20514;-70
2021/11/23 01:44:41;;;;;;;29.17;19.40;;;11.30;95.40;;;;;;5061999;28;20215;-70
2021/11/23 01:47:08;;;;;;;43.73;19.87;;;11.40;95.40;;;;;;5040747;28;20222;-70
2021/11/23 01:49:36;;;;;;;39.87;20.27;;;11.40;95.30;;;;;;5042962;28;20309;-70
2021/11/23 01:52:03;;;;;;;30.43;19.30;;;11.40;95.30;;;;;;5045102;28;20214;-70
2021/11/23 01:54:32;;;;;;;39.00;20.57;;;11.40;95.30;;;;;;5048024;28;20298;-70
2021/11/23 01:57:00;;;;;;;38.03;21.83;;;11.30;95.20;;;;;;5061871;28;20649;-70
2021/11/23 01:59:27;;;;;;;43.13;21.70;;;11.30;95.20;;;;;;5047418;28;20265;-70
2021/11/23 02:01:54;;;;;;;33.03;20.33;;;11.40;95.20;;;;;;5048031;28;20218;-70
2021/11/23 02:04:22;;;;;;;32.07;20.37;;;11.30;95.20;;;;;;5047391;28;20213;-70
2021/11/23 02:06:49;;;;;;;37.63;20.43;;;11.30;95.30;;;;;;5047724;28;20233;-70
2021/11/23 02:09:16;;;;;;;37.67;20.87;;;11.30;95.30;;;;;;5045264;28;20243;-71
2021/11/23 02:11:44;;;;;;;36.53;19.40;;;11.30;95.40;;;;;;5045475;28;20571;-70
2021/11/23 02:14:11;;;;;;;23.00;13.47;;;11.40;95.40;;;;;;5044757;28;20226;-70
2021/11/23 02:16:39;;;;;;;22.83;14.50;;;11.40;95.40;;;;;;5048736;28;20491;-70
2021/11/23 02:19:05;;;;;;;21.87;14.57;;;11.30;95.30;;;;;;5050372;28;20206;-70
2021/11/23 02:21:33;;;;;;;18.13;11.43;;;11.40;95.30;;;;;;5047060;28;20285;-70
2021/11/23 02:24:00;;;;;;;21.97;12.20;;;11.40;95.30;;;;;;5038025;28;20233;-70
2021/11/23 02:26:28;;;;;;;18.47;11.80;;;11.40;95.40;;;;;;5038966;28;20215;-70
2021/11/23 02:28:56;;;;;;;21.90;11.23;;;11.30;95.00;;;;;;5041551;28;20210;-70
2021/11/23 02:31:23;;;;;;;18.63;9.43;;;11.30;95.00;;;;;;5061872;28;20222;-70
2021/11/23 02:33:50;;;;;;;17.33;9.83;;;11.30;95.00;;;;;;5049275;28;20291;-70
2021/11/23 02:36:18;;;;;;;14.57;8.17;;;11.30;94.90;;;;;;5037314;28;20262;-70
2021/11/23 02:38:46;;;;;;;13.93;7.00;;;11.30;94.80;;;;;;5032639;28;20211;-70
2021/11/23 02:41:13;;;;;;;16.53;7.07;;;11.30;94.70;;;;;;5047444;28;20221;-70
2021/11/23 02:43:41;;;;;;;13.23;6.90;;;11.20;94.60;;;;;;5045831;28;20254;-70
2021/11/23 02:46:09;;;;;;;8.47;4.97;;;11.20;94.50;;;;;;5032794;28;20227;-70
2021/11/23 02:48:37;;;;;;;11.20;4.57;;;11.10;94.40;;;;;;5033573;28;20218;-70
2021/11/23 02:53:33;;;;;;;8.27;4.10;;;11.00;94.40;;;;;;5030494;28;20226;-70
2021/11/23 02:56:04;;;;;;;9.13;3.63;;;11.00;94.30;;;;;;5032442;28;20565;-70
2021/11/23 02:58:33;;;;;;;6.90;4.03;;;11.00;94.00;;;;;;5040155;28;20554;-70
2021/11/23 03:01:04;;;;;;;7.90;4.07;;;11.00;94.00;;;;;;5037208;28;20646;-70
2021/11/23 03:03:32;;;;;;;8.53;3.73;;;11.00;94.00;;;;;;5037021;28;20294;-70
2021/11/23 03:05:59;;;;;;;13.20;4.43;;;10.90;94.00;;;;;;5036775;28;20257;-70
2021/11/23 03:08:26;;;;;;;6.73;3.27;;;10.90;94.00;;;;;;5044472;28;20241;-70
2021/11/23 03:10:54;;;;;;;9.97;3.73;;;10.90;93.90;;;;;;5038864;28;20211;-70
2021/11/23 03:13:21;;;;;;;7.00;3.23;;;10.90;93.80;;;;;;5046011;28;20218;-71
2021/11/23 03:15:48;;;;;;;8.80;4.47;;;10.90;93.70;;;;;;5039388;28;20251;-70
2021/11/23 03:18:15;;;;;;;18.20;5.23;;;10.90;93.60;;;;;;5043494;28;20307;-71
2021/11/23 03:20:45;;;;;;;9.60;4.20;;;10.90;93.50;;;;;;5044509;28;20533;-71
2021/11/23 03:23:13;;;;;;;12.40;4.07;;;10.80;93.50;;;;;;5040973;28;20565;-71
2021/11/23 03:25:41;;;;;;;11.57;4.10;;;10.80;93.30;;;;;;5041204;28;20268;-70
2021/11/23 03:28:08;;;;;;;9.87;4.47;;;10.80;93.30;;;;;;5039378;28;20218;-70
2021/11/23 03:30:36;;;;;;;12.10;5.07;;;10.80;93.10;;;;;;5042483;28;20635;-70
2021/11/23 03:33:06;;;;;;;14.93;6.07;;;10.80;93.10;;;;;;5038809;28;20229;-70
2021/11/23 03:35:36;;;;;;;8.33;5.33;;;10.70;93.00;;;;;;5043975;28;20645;-70
2021/11/23 03:38:05;;;;;;;9.63;5.03;;;10.80;92.60;;;;;;5039858;28;20210;-70
2021/11/23 03:40:34;;;;;;;11.53;4.97;;;10.70;92.30;;;;;;5042806;28;20276;-70
2021/11/23 03:43:03;;;;;;;11.30;4.53;;;10.70;92.20;;;;;;5041008;28;20210;-70
2021/11/23 03:45:31;;;;;;;10.73;5.07;;;10.70;92.10;;;;;;5045959;28;20590;-70
2021/11/23 03:48:00;;;;;;;6.20;4.57;;;10.70;92.00;;;;;;5046894;28;20222;-70
2021/11/23 03:50:28;;;;;;;8.50;4.87;;;10.70;91.60;;;;;;5046296;28;20229;-70
2021/11/23 03:52:57;;;;;;;8.40;4.97;;;10.70;91.40;;;;;;5036786;28;20211;-70
2021/11/23 03:55:25;;;;;;;8.97;5.73;;;10.70;91.40;;;;;;5035107;28;20325;-70
2021/11/23 03:57:52;;;;;;;9.20;5.20;;;10.70;91.40;;;;;;5048501;28;20523;-71
2021/11/23 04:00:21;;;;;;;11.03;5.50;;;10.70;91.30;;;;;;5049957;28;20214;-70
2021/11/23 04:02:49;;;;;;;10.93;5.17;;;10.70;91.40;;;;;;5044927;28;20223;-71
2021/11/23 04:05:17;;;;;;;13.30;6.03;;;10.60;91.50;;;;;;5033837;28;20208;-70
2021/11/23 04:07:44;;;;;;;13.70;5.90;;;10.60;91.50;;;;;;5033014;28;20250;-70
2021/11/23 04:10:14;;;;;;;8.50;5.10;;;10.60;91.40;;;;;;5040933;28;20222;-70
2021/11/23 04:12:41;;;;;;;7.27;5.33;;;10.60;91.10;;;;;;5047357;28;20214;-70
2021/11/23 04:15:09;;;;;;;9.60;5.70;;;10.50;91.20;;;;;;5033358;28;20630;-70
2021/11/23 04:17:36;;;;;;;10.73;6.43;;;10.50;91.30;;;;;;5034048;28;20215;-70
2021/11/23 04:20:06;;;;;;;9.27;6.13;;;10.50;91.20;;;;;;5034150;28;20218;-70
2021/11/23 04:22:33;;;;;;;12.67;6.10;;;10.50;91.20;;;;;;5035577;28;20296;-70
2021/11/23 04:25:00;;;;;;;8.03;5.07;;;10.50;91.30;;;;;;5036225;28;20238;-70
2021/11/23 04:27:28;;;;;;;7.00;4.97;;;10.50;91.20;;;;;;5040358;28;20214;-70
2021/11/23 04:29:55;;;;;;;9.60;5.33;;;10.40;90.90;;;;;;5046553;28;20222;-70
2021/11/23 04:32:22;;;;;;;5.70;4.77;;;10.50;91.00;;;;;;5040112;28;20222;-70
2021/11/23 04:34:50;;;;;;;10.07;5.83;;;10.40;91.10;;;;;;5043060;28;20608;-70
2021/11/23 04:37:17;;;;;;;7.90;5.33;;;10.40;91.10;;;;;;5041697;28;20237;-70
2021/11/23 04:39:44;;;;;;;9.00;4.83;;;10.40;90.80;;;;;;5040468;28;20207;-70
2021/11/23 04:42:11;;;;;;;12.10;5.37;;;10.40;90.80;;;;;;5040982;28;20534;-70
2021/11/23 04:44:38;;;;;;;11.80;5.80;;;10.40;90.90;;;;;;5042390;28;20226;-70
2021/11/23 04:47:05;;;;;;;10.87;5.57;;;10.40;91.00;;;;;;5040185;28;20218;-70
2021/11/23 04:49:34;;;;;;;10.30;5.50;;;10.40;91.00;;;;;;5044897;28;20218;-70
2021/11/23 04:52:01;;;;;;;7.53;4.80;;;10.40;91.10;;;;;;5044597;28;20210;-70
2021/11/23 04:54:29;;;;;;;8.23;5.07;;;10.40;91.00;;;;;;5039041;28;20235;-70
2021/11/23 04:56:56;;;;;;;8.70;4.50;;;10.40;90.90;;;;;;5042661;28;20219;-70
2021/11/23 04:59:23;;;;;;;9.93;4.63;;;10.40;91.00;;;;;;5044971;28;20215;-70
2021/11/23 05:01:50;;;;;;;7.50;4.60;;;10.40;91.00;;;;;;5041471;28;20210;-70
2021/11/23 05:04:17;;;;;;;6.20;4.73;;;10.40;91.00;;;;;;5041428;28;20210;-70
2021/11/23 05:06:44;;;;;;;12.57;4.83;;;10.30;90.90;;;;;;5041391;28;20222;-70
2021/11/23 05:09:11;;;;;;;10.23;5.13;;;10.30;90.90;;;;;;5048917;28;20456;-70
2021/11/23 05:11:40;;;;;;;9.07;4.90;;;10.30;90.90;;;;;;5040609;28;20230;-70
2021/11/23 05:14:07;;;;;;;7.27;4.60;;;10.30;91.00;;;;;;5051130;28;20268;-70
2021/11/23 05:16:34;;;;;;;5.77;4.63;;;10.30;91.00;;;;;;5050389;28;20638;-70
2021/11/23 05:19:01;;;;;;;6.30;4.23;;;10.30;91.00;;;;;;5051566;28;20555;-70
2021/11/23 05:21:28;;;;;;;9.87;5.10;;;10.30;91.10;;;;;;5053433;28;20611;-70
2021/11/23 05:23:55;;;;;;;7.17;4.70;;;10.30;91.10;;;;;;5054733;28;20210;-70
2021/11/23 05:26:22;;;;;;;7.47;4.23;;;10.30;91.20;;;;;;5053827;28;20215;-70
2021/11/23 05:28:49;;;;;;;7.73;4.30;;;10.30;91.30;;;;;;5043330;28;20220;-70
2021/11/23 05:31:17;;;;;;;8.27;4.53;;;10.30;91.30;;;;;;5053143;28;20566;-70
2021/11/23 05:33:44;;;;;;;6.87;3.80;;;10.30;91.40;;;;;;5053852;28;20222;-70
2021/11/23 05:36:11;;;;;;;7.97;4.30;;;10.30;91.40;;;;;;5049378;28;20230;-70
2021/11/23 05:38:39;;;;;;;5.97;3.97;;;10.30;91.40;;;;;;5036147;28;20310;-70
2021/11/23 05:41:06;;;;;;;11.10;4.03;;;10.20;91.40;;;;;;5046747;28;20210;-70
2021/11/23 05:43:33;;;;;;;12.43;5.17;;;10.30;91.30;;;;;;5047501;28;20233;-70
2021/11/23 05:46:00;;;;;;;6.67;4.60;;;10.20;91.40;;;;;;5035785;28;20227;-70
2021/11/23 05:48:27;;;;;;;5.67;4.10;;;10.20;91.40;;;;;;5039372;28;20601;-70
2021/11/23 05:50:54;;;;;;;8.93;4.63;;;10.20;91.30;;;;;;5039353;28;20211;-70
2021/11/23 05:53:21;;;;;;;6.60;4.33;;;10.20;91.40;;;;;;5040702;28;20218;-70
2021/11/23 05:55:49;;;;;;;8.43;4.73;;;10.20;91.60;;;;;;5039888;28;20242;-70
2021/11/23 05:58:16;;;;;;;7.40;3.97;;;10.10;91.40;;;;;;5041851;28;20206;-70
2021/11/23 06:00:43;;;;;;;9.80;4.03;;;10.20;91.40;;;;;;5044690;28;20218;-70
2021/11/23 06:03:10;;;;;;;6.67;4.37;;;10.20;91.50;;;;;;5047120;28;20216;-70
2021/11/23 06:05:37;;;;;;;11.10;4.77;;;10.20;91.50;;;;;;5045472;28;20222;-70
2021/11/23 06:08:04;;;;;;;7.80;4.17;;;10.20;91.50;;;;;;5044511;28;20247;-70
2021/11/23 06:10:32;;;;;;;8.97;4.13;;;10.20;91.60;;;;;;5043430;28;20225;-70
2021/11/23 06:13:03;;;;;;;7.00;4.03;;;10.20;91.60;;;;;;5041635;28;20215;-70
2021/11/23 06:15:30;;;;;;;7.97;5.10;;;10.20;91.60;;;;;;5045145;28;20268;-70
2021/11/23 06:18:02;;;;;;;11.70;4.73;;;10.20;91.60;;;;;;5047288;28;20215;-70
2021/11/23 06:20:30;;;;;;;7.57;3.60;;;10.20;91.60;;;;;;5047639;28;20280;-69
2021/11/23 06:22:59;;;;;;;9.60;3.70;;;10.20;91.60;;;;;;5048525;28;20221;-69
2021/11/23 06:25:26;;;;;;;7.03;3.63;;;10.20;91.50;;;;;;5043980;28;20218;-69
2021/11/23 06:27:54;;;;;;;6.60;3.10;;;10.20;91.40;;;;;;5046607;28;20225;-70
2021/11/23 06:30:22;;;;;;;7.60;3.10;;;10.20;91.40;;;;;;5037908;28;20273;-70
2021/11/23 06:32:50;;;;;;;7.37;3.10;;;10.20;91.30;;;;;;5039629;28;20210;-70
2021/11/23 06:35:17;;;;;;;9.73;3.30;;;10.20;91.10;;;;;;5049789;28;20662;-70
2021/11/23 06:37:44;;;;;;;6.03;2.80;;;10.20;91.30;;;;;;5050161;28;20218;-70
2021/11/23 06:40:12;;;;;;;11.07;3.57;;;10.20;91.30;;;;;;5041984;28;20283;-70
2021/11/23 06:42:39;;;;;;;7.70;3.10;;;10.20;91.20;;;;;;5035562;28;20215;-70
2021/11/23 06:45:07;;;;;;;8.67;2.90;;;10.20;91.20;;;;;;5035006;28;20211;-70
2021/11/23 06:47:35;;;;;;;6.13;2.90;;;10.20;91.20;;;;;;5032134;28;20211;-70
2021/11/23 06:50:02;;;;;;;8.43;2.70;;;10.20;91.30;;;;;;5035372;28;20220;-70
2021/11/23 06:52:29;;;;;;;10.07;3.50;;;10.30;91.30;;;;;;5031073;28;20626;-70
2021/11/23 06:54:57;;;;;;;7.53;2.83;;;10.30;91.10;;;;;;5033766;28;20266;-70
2021/11/23 06:57:24;;;;;;;8.20;3.37;;;10.30;91.10;;;;;;5040277;28;20276;-70
2021/11/23 06:59:51;;;;;;;9.17;2.60;;;10.40;91.10;;;;;;5033177;28;20563;-70
2021/11/23 07:02:18;;;;;;;9.73;3.17;;;10.40;91.10;;;;;;5028130;28;20246;-70
2021/11/23 07:04:45;;;;;;;7.57;3.03;;;10.40;91.10;;;;;;5029076;28;20239;-70
2021/11/23 07:07:12;;;;;;;6.00;2.60;;;10.40;90.90;;;;;;5037409;28;20241;-70
2021/11/23 07:09:42;;;;;;;6.93;2.20;;;10.40;90.80;;;;;;5038989;28;20218;-70
2021/11/23 07:12:10;;;;;;;8.93;2.80;;;10.50;90.80;;;;;;5035875;28;20258;-70
2021/11/23 07:14:38;;;;;;;11.43;2.73;;;10.50;90.40;;;;;;5041396;28;20215;-70
2021/11/23 07:17:06;;;;;;;3.70;2.30;;;10.50;90.70;;;;;;5036043;28;20214;-70
2021/11/23 07:19:33;;;;;;;6.27;2.80;;;10.60;90.50;;;;;;5040265;28;20609;-70
2021/11/23 07:22:00;;;;;;;13.20;3.67;;;10.60;90.50;;;;;;5034884;28;20222;-70
2021/11/23 07:24:28;;;;;;;6.93;3.47;;;10.60;90.40;;;;;;5042980;28;20215;-70
2021/11/23 07:26:55;;;;;;;13.50;2.80;;;10.70;90.30;;;;;;5036873;28;20233;-70
2021/11/23 07:29:22;;;;;;;12.33;3.63;;;10.70;90.20;;;;;;5037540;28;20214;-70
2021/11/23 07:31:49;;;;;;;8.60;3.20;;;10.70;90.00;;;;;;5029620;28;20231;-70
2021/11/23 07:34:16;;;;;;;7.17;3.40;;;10.80;89.70;;;;;;5034098;28;20232;-70
2021/11/23 07:36:43;;;;;;;6.20;2.97;;;10.80;89.60;;;;;;5036663;28;20722;-70
2021/11/23 07:39:10;;;;;;;10.50;3.57;;;10.80;89.50;;;;;;5040072;28;20549;-70
2021/11/23 07:41:37;;;;;;;8.47;3.00;;;10.90;89.10;;;;;;5038949;28;20211;-70
2021/11/23 07:44:05;;;;;;;6.57;2.80;;;10.90;88.90;;;;;;5041016;28;20215;-70
2021/11/23 07:46:33;;;;;;;10.83;3.03;;;10.90;88.50;;;;;;5033902;28;20215;-70
2021/11/23 07:49:00;;;;;;;4.73;3.07;;;11.00;88.20;;;;;;5027240;28;20244;-70
2021/11/23 07:51:28;;;;;;;7.60;3.50;;;11.00;88.50;;;;;;5044183;28;20230;-70
2021/11/23 07:53:55;;;;;;;9.30;3.60;;;11.10;88.80;;;;;;5041431;28;20215;-70
2021/11/23 07:56:22;;;;;;;13.90;5.43;;;11.20;89.30;;;;;;5033917;28;20248;-70
2021/11/23 07:58:49;;;;;;;9.20;3.77;;;11.30;89.40;;;;;;5024630;28;20210;-70
2021/11/23 08:01:16;;;;;;;10.77;3.73;;;11.30;89.40;;;;;;5044889;28;20207;-70
2021/11/23 08:03:44;;;;;;;11.50;3.23;;;11.40;89.40;;;;;;5042391;28;20210;-70
2021/11/23 08:06:11;;;;;;;6.10;2.63;;;11.40;88.90;;;;;;5044277;28;20226;-70
2021/11/23 08:08:39;;;;;;;8.17;3.13;;;11.40;88.60;;;;;;5031585;28;20254;-70
2021/11/23 08:11:07;;;;;;;4.87;2.97;;;11.40;88.20;;;;;;5031497;28;20219;-70
2021/11/23 08:13:34;;;;;;;4.87;2.47;;;11.40;88.20;;;;;;5042234;28;20694;-70
2021/11/23 08:16:03;;;;;;;10.20;2.63;;;11.40;88.10;;;;;;5033341;28;20242;-70
2021/11/23 08:18:32;;;;;;;7.17;2.37;;;11.40;88.00;;;;;;5034001;28;20557;-70
2021/11/23 08:21:01;;;;;;;6.50;2.30;;;11.40;87.80;;;;;;5038146;28;20253;-70
2021/11/23 08:23:28;;;;;;;6.87;3.00;;;11.40;87.60;;;;;;5044016;28;20215;-70
2021/11/23 08:25:56;;;;;;;13.10;3.63;;;11.40;86.90;;;;;;5039754;28;20219;-70
2021/11/23 08:28:26;;;;;;;11.27;4.00;;;11.50;86.30;;;;;;5047311;28;20222;-70
2021/11/23 08:30:55;;;;;;;9.77;3.87;;;11.50;85.50;;;;;;5038249;28;20231;-70
2021/11/23 08:33:23;;;;;;;7.43;3.07;;;11.60;86.00;;;;;;5041693;28;20287;-70
2021/11/23 08:35:51;;;;;;;8.13;2.43;;;11.60;84.70;;;;;;5041994;28;20582;-70
2021/11/23 08:38:18;;;;;;;11.83;2.83;;;11.70;84.80;;;;;;5044297;28;20632;-70
2021/11/23 08:40:45;;;;;;;5.27;3.03;;;11.70;84.10;;;;;;5041561;28;20682;-70
2021/11/23 08:43:12;;;;;;;7.50;3.10;;;11.80;82.70;;;;;;5043972;28;20215;-70
2021/11/23 08:45:41;;;;;;;3.13;2.10;;;11.90;83.30;;;;;;5046918;28;20246;-70
2021/11/23 08:48:08;;;;;;;6.80;3.47;;;12.00;82.60;;;;;;5045137;28;20218;-70
2021/11/23 08:50:35;;;;;;;15.30;2.40;;;12.00;82.20;;;;;;5042927;28;20210;-70
2021/11/23 08:53:07;;;;;;;7.03;2.80;;;12.10;82.90;;;;;;5039976;28;20211;-70
2021/11/23 08:55:36;;;;;;;4.80;2.47;;;12.10;82.10;;;;;;5043551;28;20227;-70
2021/11/23 08:58:05;;;;;;;8.73;2.83;;;12.20;81.80;;;;;;5041249;28;20210;-70
2021/11/23 09:00:33;;;;;;;5.97;3.00;;;12.20;83.40;;;;;;5042821;28;20218;-70
2021/11/23 09:03:01;;;;;;;11.73;2.80;;;12.30;82.70;;;;;;5040507;28;20211;-70
2021/11/23 09:05:32;;;;;;;5.97;3.03;;;12.40;82.20;;;;;;5036384;28;20697;-70
2021/11/23 09:08:01;;;;;;;9.60;3.20;;;12.40;82.00;;;;;;5043677;28;20253;-70
2021/11/23 09:10:32;;;;;;;10.17;3.13;;;12.50;81.80;;;;;;5041491;28;20215;-70
2021/11/23 09:13:00;;;;;;;12.73;2.87;;;12.50;82.80;;;;;;5037057;28;20284;-70
2021/11/23 09:15:28;;;;;;;8.60;3.47;;;12.60;82.10;;;;;;5039863;28;20214;-70
2021/11/23 09:17:58;;;;;;;10.80;3.03;;;12.70;81.80;;;;;;5046846;28;20219;-70
2021/11/23 09:20:35;;;;;;;6.33;2.83;;;12.70;80.60;;;;;;5051463;28;20214;-70
2021/11/23 09:23:08;;;;;;;10.10;2.93;;;12.70;81.20;;;;;;5042373;28;20214;-70
2021/11/23 09:25:36;;;;;;;9.37;3.77;;;12.70;81.00;;;;;;5043326;28;20746;-70
2021/11/23 09:28:04;;;;;;;7.33;2.93;;;12.80;81.50;;;;;;5050586;28;20214;-70
2021/11/23 09:30:33;;;;;;;7.40;2.83;;;12.80;82.10;;;;;;5051968;28;20261;-70
2021/11/23 09:33:02;;;;;;;7.97;3.17;;;12.90;79.10;;;;;;5049344;28;20388;-70
2021/11/23 09:35:29;;;;;;;5.87;3.30;;;13.00;80.70;;;;;;5034530;28;20253;-70
2021/11/23 09:37:57;;;;;;;5.67;3.20;;;13.10;80.30;;;;;;5042009;28;20222;-70
2021/11/23 09:40:24;;;;;;;7.70;3.07;;;13.30;79.90;;;;;;5047716;28;20246;-70
2021/11/23 09:42:53;;;;;;;6.97;3.47;;;13.30;81.10;;;;;;5047802;28;20225;-70
2021/11/23 09:45:21;;;;;;;11.23;3.53;;;13.40;80.70;;;;;;5036347;28;20237;-70
2021/11/23 09:47:48;;;;;;;12.87;3.43;;;13.50;80.10;;;;;;5038686;28;20207;-70
2021/11/23 09:50:15;;;;;;;8.73;2.43;;;13.70;79.60;;;;;;5041168;28;20211;-70
2021/11/23 09:52:43;;;;;;;7.97;2.77;;;13.80;78.10;;;;;;5040586;28;20642;-70
2021/11/23 09:55:12;;;;;;;7.73;3.10;;;13.80;77.80;;;;;;5042047;28;20241;-70
2021/11/23 09:57:39;;;;;;;7.10;3.03;;;13.90;77.30;;;;;;5041980;28;20235;-69
2021/11/23 10:00:34;;;;;;;9.47;2.50;;;14.00;74.80;;;;;;5045884;28;20623;-69
2021/11/23 10:03:10;;;;;;;6.83;3.20;;;14.10;77.30;;;;;;5043409;28;20293;-69
2021/11/23 10:05:40;;;;;;;5.73;3.20;;;14.20;76.90;;;;;;5045863;28;20303;-69
2021/11/23 10:08:13;;;;;;;6.37;2.70;;;14.20;72.70;;;;;;5042696;28;20266;-70
2021/11/23 10:10:50;;;;;;;6.57;2.47;;;14.30;73.30;;;;;;5043073;28;20604;-70
2021/11/23 10:13:20;;;;;;;8.47;2.60;;;14.30;72.70;;;;;;5043998;28;20217;-70
2021/11/23 10:15:50;;;;;;;9.83;2.77;;;14.30;74.10;;;;;;5029418;28;20234;-70
2021/11/23 10:18:31;;;;;;;6.03;2.70;;;14.40;75.00;;;;;;5038123;28;20240;-70
2021/11/23 10:21:00;;;;;;;9.00;2.70;;;14.50;73.30;;;;;;5045748;28;20284;-70
2021/11/23 10:23:36;;;;;;;9.83;2.63;;;14.50;71.80;;;;;;5043262;28;20210;-70
2021/11/23 10:26:16;;;;;;;5.53;2.40;;;14.50;70.10;;;;;;5056046;28;20219;-70
2021/11/23 10:29:04;;;;;;;6.17;2.43;;;14.60;72.00;;;;;;5041352;28;20214;-70
2021/11/23 10:31:41;;;;;;;6.57;2.40;;;14.60;71.90;;;;;;5043533;28;20214;-69
2021/11/23 10:34:13;;;;;;;6.43;2.67;;;14.70;70.40;;;;;;5053203;28;20223;-70
2021/11/23 10:36:44;;;;;;;6.60;2.93;;;14.80;71.10;;;;;;5035703;28;20238;-70
2021/11/23 10:39:12;;;;;;;6.07;2.70;;;14.80;72.20;;;;;;5034111;28;20250;-70
2021/11/23 10:41:42;;;;;;;5.53;2.93;;;14.80;72.00;;;;;;5032056;28;20203;-70
2021/11/23 10:44:27;;;;;;;3.17;2.50;;;14.90;72.10;;;;;;5037203;28;20207;-70
2021/11/23 10:47:04;;;;;;;6.13;2.70;;;14.90;70.60;;;;;;5032319;28;20259;-70
2021/11/23 10:49:43;;;;;;;5.73;2.77;;;14.90;69.20;;;;;;5025860;28;20244;-70
2021/11/23 10:52:28;;;;;;;5.40;2.67;;;14.90;68.70;;;;;;5029222;28;20622;-70
2021/11/23 10:54:56;;;;;;;7.33;2.83;;;15.00;71.50;;;;;;5037898;28;20219;-70
2021/11/23 10:57:23;;;;;;;5.80;3.00;;;15.10;70.30;;;;;;5040024;28;20246;-70
2021/11/23 10:59:51;;;;;;;7.43;2.73;;;15.10;69.20;;;;;;5044136;28;20283;-70
2021/11/23 11:02:18;;;;;;;9.90;2.60;;;15.20;68.60;;;;;;5039554;28;20214;-70
2021/11/23 11:04:50;;;;;;;11.57;2.87;;;15.20;70.40;;;;;;5042010;28;20206;-70
2021/11/23 11:07:20;;;;;;;5.83;2.53;;;15.30;68.80;;;;;;5036456;28;20228;-70
2021/11/23 11:09:49;;;;;;;7.97;2.87;;;15.30;67.60;;;;;;5034231;28;20211;-70
2021/11/23 11:12:18;;;;;;;7.60;3.47;;;15.30;68.70;;;;;;5040575;28;20228;-70
2021/11/23 11:14:50;;;;;;;9.63;3.30;;;15.30;67.10;;;;;;5043303;28;20210;-72
2021/11/23 11:17:18;;;;;;;10.07;2.53;;;15.30;67.00;;;;;;5044514;28;20223;-72
2021/11/23 11:19:48;;;;;;;7.00;2.73;;;15.30;67.70;;;;;;5044359;28;20225;-73
2021/11/23 11:22:21;;;;;;;4.83;2.53;;;15.40;67.60;;;;;;5041411;28;20203;-73
2021/11/23 11:25:41;;;;;;;4.37;2.37;;;15.40;66.40;;;;;;5040821;28;20661;-73
2021/11/23 11:27:47;;;;;;;5.97;2.77;;;15.50;67.80;;;;;;5038172;28;20484;-73
2021/11/23 11:30:35;;;;;;;8.80;2.63;;;15.60;68.30;;;;;;5040399;28;20227;-73
2021/11/23 11:33:08;;;;;;;5.63;2.77;;;15.60;66.50;;;;;;5042211;28;20215;-72
2021/11/23 11:35:43;;;;;;;5.00;2.37;;;15.70;67.10;;;;;;5040625;28;20751;-73
2021/11/23 11:38:42;;;;;;;4.90;2.60;;;15.80;66.40;;;;;;5044655;28;20237;-73
2021/11/23 11:41:38;;;;;;;7.63;2.90;;;15.90;65.50;;;;;;5010932;28;20220;-72
2021/11/23 11:44:19;;;;;;;5.33;2.67;;;16.00;64.90;;;;;;5037542;28;20221;-72
2021/11/23 11:47:01;;;;;;;5.47;2.60;;;15.90;64.60;;;;;;5045684;28;20580;-73
2021/11/23 11:49:54;;;;;;;4.77;2.37;;;15.70;64.20;;;;;;5051826;28;20287;-72
2021/11/23 11:52:27;;;;;;;4.23;2.70;;;15.50;66.20;;;;;;5035982;28;20606;-71
2021/11/23 11:55:12;;;;;;;4.23;2.50;;;15.30;66.40;;;;;;5046417;28;20218;-72
2021/11/23 11:57:45;;;;;;;4.20;2.53;;;15.20;67.30;;;;;;5044141;28;20250;-72
2021/11/23 12:00:26;;;;;;;7.70;2.87;;;15.00;68.40;;;;;;5052181;28;20838;-73
2021/11/23 12:03:00;;;;;;;5.47;2.30;;;15.10;68.40;;;;;;5045464;28;20221;-73
2021/11/23 12:05:50;;;;;;;3.87;2.10;;;15.20;68.20;;;;;;5037416;28;20584;-73
2021/11/23 12:08:23;;;;;;;5.73;2.80;;;15.40;67.10;;;;;;5036711;28;20630;-72
2021/11/23 12:10:51;;;;;;;4.80;2.33;;;15.60;67.00;;;;;;5037876;28;20227;-72
2021/11/23 12:13:21;;;;;;;6.60;2.40;;;15.80;65.70;;;;;;5050331;28;20465;-72
2021/11/23 12:15:53;;;;;;;5.83;2.10;;;15.90;64.80;;;;;;5044608;28;20315;-74
2021/11/23 12:18:32;;;;;;;7.10;2.90;;;16.00;64.50;;;;;;5053554;28;20238;-73
2021/11/23 12:21:11;;;;;;;8.57;3.27;;;16.10;64.10;;;;;;5052180;28;20253;-73
2021/11/23 12:23:57;;;;;;;5.60;2.17;;;16.10;64.60;;;;;;5037338;28;20276;-74
2021/11/23 12:26:35;;;;;;;9.33;2.77;;;16.10;64.90;;;;;;5038994;28;20219;-73
2021/11/23 12:29:12;;;;;;;8.80;3.00;;;16.10;64.10;;;;;;5038935;28;20223;-73
2021/11/23 12:31:49;;;;;;;4.63;2.13;;;16.10;64.80;;;;;;5038215;28;20222;-73
2021/11/23 12:34:16;;;;;;;4.43;2.10;;;16.20;65.50;;;;;;5041702;28;20221;-73
2021/11/23 12:36:49;;;;;;;7.20;2.70;;;16.10;65.70;;;;;;5048429;28;20246;-73
2021/11/23 12:39:22;;;;;;;8.50;2.40;;;16.00;64.80;;;;;;5043686;28;20226;-73
2021/11/23 12:42:04;;;;;;;4.77;2.17;;;15.80;64.20;;;;;;5043029;28;20215;-73
2021/11/23 12:44:38;;;;;;;4.37;2.30;;;15.70;65.10;;;;;;5044919;28;20217;-74
2021/11/23 12:47:09;;;;;;;3.47;2.30;;;15.50;65.20;;;;;;5048171;28;20214;-73
2021/11/23 12:49:38;;;;;;;5.13;2.37;;;15.40;65.50;;;;;;5046041;28;20712;-72
2021/11/23 12:52:15;;;;;;;9.67;2.50;;;15.30;65.40;;;;;;5047252;28;20939;-72
2021/11/23 12:54:47;;;;;;;3.80;2.27;;;15.20;66.90;;;;;;5044007;28;20623;-72